createdAt,value
2023-04-18T00:00:31.536Z,98231.91
2023-04-18T00:02:59.262Z,98188.97
2023-04-18T00:05:27.943Z,98218.84
2023-04-18T00:07:54.675Z,98218.84
2023-04-18T00:10:21.513Z,98217.19
2023-04-18T00:12:49.034Z,98215.63
2023-04-18T00:15:15.978Z,98226.06
2023-04-18T00:17:42.982Z,98226.88
2023-04-18T00:20:13.468Z,98214.59
2023-04-18T00:22:42.751Z,98209.22
2023-04-18T00:25:11.078Z,98174.75
2023-04-18T00:27:41.672Z,98205.31
2023-04-18T00:30:09.182Z,98219.56
2023-04-18T00:32:37.815Z,98221.34
2023-04-18T00:35:05.157Z,98215.97
2023-04-18T00:37:31.826Z,98211.13
2023-04-18T00:39:58.704Z,98209.28
2023-04-18T00:42:29.434Z,98218.78
2023-04-18T00:44:56.473Z,98214.97
2023-04-18T00:47:23.311Z,98202.38
2023-04-18T00:49:50.522Z,98208.16
2023-04-18T00:52:18.545Z,98208.38
2023-04-18T00:54:46.731Z,98207.16
2023-04-18T00:57:13.733Z,98206.38
2023-04-18T00:59:40.799Z,98209.41
2023-04-18T01:02:07.950Z,98208.56
2023-04-18T01:04:35.031Z,98215.34
2023-04-18T01:07:02.322Z,98210.09
2023-04-18T01:09:29.420Z,98204.84
2023-04-18T01:11:56.274Z,98210.22
2023-04-18T01:14:23.445Z,98209.50
2023-04-18T01:16:50.149Z,98200.94
2023-04-18T01:19:18.872Z,98200.31
2023-04-18T01:21:45.686Z,98210.22
2023-04-18T01:24:15.626Z,98205.16
2023-04-18T01:26:44.841Z,98210.81
2023-04-18T01:29:12.228Z,98201.44
2023-04-18T01:31:40.033Z,98195.66
2023-04-18T01:34:07.725Z,98197.41
2023-04-18T01:36:35.532Z,98184.13
2023-04-18T01:39:02.685Z,98183.41
2023-04-18T01:41:32.572Z,98182.78
2023-04-18T01:43:59.908Z,98186.31
2023-04-18T01:46:27.021Z,98174.34
2023-04-18T01:48:54.023Z,98182.69
2023-04-18T01:51:21.617Z,98179.50
2023-04-18T01:53:48.319Z,98171.88
2023-04-18T01:56:14.953Z,98179.91
2023-04-18T01:58:41.797Z,98168.75
2023-04-18T02:01:08.797Z,98176.22
2023-04-18T02:03:35.791Z,98182.88
2023-04-18T02:06:05.884Z,98158.00
2023-04-18T02:08:35.658Z,98173.22
2023-04-18T02:11:05.058Z,98154.78
2023-04-18T02:13:32.098Z,98170.41
2023-04-18T02:15:58.728Z,98173.91
2023-04-18T02:18:26.005Z,98184.44
2023-04-18T02:20:52.733Z,98175.59
2023-04-18T02:23:21.723Z,98152.84
2023-04-18T02:25:48.381Z,98173.63
2023-04-18T02:28:17.503Z,98177.75
2023-04-18T02:30:44.259Z,98177.88
2023-04-18T02:33:11.017Z,98187.47
2023-04-18T02:35:38.772Z,98185.28
2023-04-18T02:38:05.848Z,98180.22
2023-04-18T02:40:32.455Z,98182.59
2023-04-18T02:42:59.667Z,98176.00
2023-04-18T02:45:26.432Z,98176.94
2023-04-18T02:47:56.453Z,98179.75
2023-04-18T02:50:24.826Z,98177.34
2023-04-18T02:52:53.275Z,98186.59
2023-04-18T02:55:22.378Z,98185.16
2023-04-18T02:57:49.197Z,98192.56
2023-04-18T03:00:52.639Z,98166.13
2023-04-18T03:03:38.107Z,98183.72
2023-04-18T03:06:22.394Z,98185.97
2023-04-18T03:08:49.142Z,98182.75
2023-04-18T03:11:16.663Z,98172.25
2023-04-18T03:13:43.566Z,98179.53
2023-04-18T03:16:11.566Z,98173.78
2023-04-18T03:18:39.663Z,98181.31
2023-04-18T03:21:07.152Z,98188.00
2023-04-18T03:23:34.688Z,98182.97
2023-04-18T03:26:08.189Z,98184.41
2023-04-18T03:28:37.740Z,98177.41
2023-04-18T03:31:05.023Z,98184.31
2023-04-18T03:33:34.376Z,98182.16
2023-04-18T03:36:08.734Z,98179.06
2023-04-18T03:38:35.485Z,98184.91
2023-04-18T03:41:02.960Z,98181.19
2023-04-18T03:43:33.779Z,98181.50
2023-04-18T03:46:01.105Z,98187.56
2023-04-18T03:48:29.096Z,98180.75
2023-04-18T03:50:59.876Z,98189.72
2023-04-18T03:53:26.893Z,98187.91
2023-04-18T03:55:56.139Z,98181.72
2023-04-18T03:58:29.451Z,98185.41
2023-04-18T04:00:56.109Z,98185.19
2023-04-18T04:03:22.817Z,98187.03
2023-04-18T04:05:49.761Z,98186.75
2023-04-18T04:08:16.508Z,98186.84
2023-04-18T04:10:45.116Z,98193.22
2023-04-18T04:13:11.966Z,98198.72
2023-04-18T04:15:40.620Z,98193.38
2023-04-18T04:18:09.871Z,98193.78
2023-04-18T04:20:39.778Z,98199.94
2023-04-18T04:23:13.726Z,98194.09
2023-04-18T04:25:42.644Z,98192.63
2023-04-18T04:28:22.956Z,98199.78
2023-04-18T04:30:55.722Z,98204.22
2023-04-18T04:33:25.515Z,98189.56
2023-04-18T04:35:55.653Z,98199.13
2023-04-18T04:38:25.893Z,98202.75
2023-04-18T04:40:54.036Z,98208.81
2023-04-18T04:43:21.712Z,98212.41
2023-04-18T04:45:51.594Z,98202.88
2023-04-18T04:48:22.609Z,98205.53
2023-04-18T04:51:00.599Z,98208.28
2023-04-18T04:53:32.257Z,98209.13
2023-04-18T04:56:01.710Z,98215.06
2023-04-18T04:58:28.512Z,98215.47
2023-04-18T05:01:13.988Z,98213.69
2023-04-18T05:03:41.011Z,98227.66
2023-04-18T05:06:07.868Z,98217.63
2023-04-18T05:08:34.816Z,98216.06
2023-04-18T05:11:01.983Z,98227.72
2023-04-18T05:13:28.706Z,98228.31
2023-04-18T05:15:55.665Z,98227.66
2023-04-18T05:18:22.389Z,98230.97
2023-04-18T05:20:49.280Z,98228.13
2023-04-18T05:23:16.311Z,98229.22
2023-04-18T05:25:42.977Z,98241.06
2023-04-18T05:28:09.727Z,98240.22
2023-04-18T05:30:36.423Z,98241.41
2023-04-18T05:33:03.626Z,98241.25
2023-04-18T05:35:31.291Z,98249.56
2023-04-18T05:37:58.868Z,98229.13
2023-04-18T05:40:27.317Z,98242.41
2023-04-18T05:42:53.938Z,98250.59
2023-04-18T05:45:20.614Z,98251.31
2023-04-18T05:47:47.554Z,98249.09
2023-04-18T05:50:14.377Z,98248.50
2023-04-18T05:52:41.126Z,98258.22
2023-04-18T05:55:08.168Z,98255.34
2023-04-18T05:57:34.924Z,98253.88
2023-04-18T06:00:03.387Z,98254.00
2023-04-18T06:02:39.487Z,98260.69
2023-04-18T06:05:07.798Z,98251.69
2023-04-18T06:07:34.798Z,98264.03
2023-04-18T06:10:01.713Z,98247.47
2023-04-18T06:12:28.793Z,98261.91
2023-04-18T06:14:55.547Z,98259.44
2023-04-18T06:17:22.147Z,98255.09
2023-04-18T06:19:48.818Z,98265.09
2023-04-18T06:22:15.679Z,98271.38
2023-04-18T06:24:42.417Z,98263.38
2023-04-18T06:27:17.562Z,98254.41
2023-04-18T06:29:50.988Z,98263.69
2023-04-18T06:32:17.664Z,98269.75
2023-04-18T06:34:44.815Z,98259.88
2023-04-18T06:37:11.795Z,98256.44
2023-04-18T06:39:38.528Z,98262.75
2023-04-18T06:42:05.580Z,98261.34
2023-04-18T06:44:32.653Z,98256.59
2023-04-18T06:46:59.460Z,98260.72
2023-04-18T06:49:26.694Z,98264.84
2023-04-18T06:51:53.574Z,98260.38
2023-04-18T06:54:20.510Z,98256.06
2023-04-18T06:56:47.448Z,98259.03
2023-04-18T06:59:14.406Z,98252.53
2023-04-18T07:01:42.259Z,98261.88
2023-04-18T07:04:09.192Z,98250.16
2023-04-18T07:06:36.497Z,98261.09
2023-04-18T07:09:03.459Z,98257.38
2023-04-18T07:11:30.158Z,98259.28
2023-04-18T07:13:56.939Z,98253.59
2023-04-18T07:16:23.732Z,98254.25
2023-04-18T07:18:51.693Z,98260.03
2023-04-18T07:21:19.221Z,98250.13
2023-04-18T07:23:46.445Z,98249.44
2023-04-18T07:26:13.737Z,98249.09
2023-04-18T07:28:40.554Z,98232.69
2023-04-18T07:31:11.283Z,98244.25
2023-04-18T07:33:38.781Z,98241.72
2023-04-18T07:36:06.180Z,98228.34
2023-04-18T07:38:35.332Z,98237.47
2023-04-18T07:41:03.000Z,98242.84
2023-04-18T07:43:30.082Z,98238.53
2023-04-18T07:45:56.837Z,98241.94
2023-04-18T07:48:25.143Z,98242.06
2023-04-18T07:50:52.031Z,98235.84
2023-04-18T07:53:19.028Z,98236.78
2023-04-18T07:55:46.668Z,98245.16
2023-04-18T07:58:14.053Z,98240.13
2023-04-18T08:00:42.687Z,98239.16
2023-04-18T08:03:13.113Z,98238.22
2023-04-18T08:05:41.372Z,98237.19
2023-04-18T08:08:09.847Z,98230.72
2023-04-18T08:10:37.058Z,98234.84
2023-04-18T08:13:04.416Z,98235.41
2023-04-18T08:15:32.960Z,98232.38
2023-04-18T08:18:01.115Z,98237.75
2023-04-18T08:20:28.079Z,98230.22
2023-04-18T08:23:06.243Z,98232.91
2023-04-18T08:25:36.307Z,98229.94
2023-04-18T08:28:04.181Z,98227.59
2023-04-18T08:30:31.460Z,98227.81
2023-04-18T08:33:00.172Z,98232.06
2023-04-18T08:35:27.172Z,98230.94
2023-04-18T08:37:53.874Z,98234.31
2023-04-18T08:40:20.829Z,98227.59
2023-04-18T08:42:48.059Z,98229.78
2023-04-18T08:45:15.059Z,98221.88
2023-04-18T08:47:42.568Z,98227.50
2023-04-18T08:50:10.598Z,98226.44
2023-04-18T08:52:45.021Z,98223.28
2023-04-18T08:55:12.113Z,98229.66
2023-04-18T08:57:39.831Z,98221.25
2023-04-18T09:00:10.499Z,98227.00
2023-04-18T09:02:42.795Z,98227.44
2023-04-18T09:05:20.103Z,98232.59
2023-04-18T09:07:48.864Z,98223.44
2023-04-18T09:10:34.855Z,98222.47
2023-04-18T09:13:06.254Z,98219.09
2023-04-18T09:15:34.475Z,98223.31
2023-04-18T09:18:03.055Z,98212.22
2023-04-18T09:20:35.879Z,98222.59
2023-04-18T09:23:11.141Z,98204.84
2023-04-18T09:25:49.141Z,98207.88
2023-04-18T09:28:29.128Z,98210.78
2023-04-18T09:31:11.937Z,98209.44
2023-04-18T09:33:43.288Z,98204.03
2023-04-18T09:36:18.826Z,98205.03
2023-04-18T09:38:46.142Z,98201.06
2023-04-18T09:41:15.703Z,98205.56
2023-04-18T09:43:43.248Z,98205.16
2023-04-18T09:46:10.968Z,98209.97
2023-04-18T09:48:38.191Z,98203.16
2023-04-18T09:51:10.090Z,98205.34
2023-04-18T09:53:41.634Z,98198.91
2023-04-18T09:56:29.664Z,98195.63
2023-04-18T09:59:01.640Z,98200.28
2023-04-18T10:01:29.579Z,98195.63
2023-04-18T10:03:57.781Z,98193.47
2023-04-18T10:06:27.371Z,98184.72
2023-04-18T10:08:55.231Z,98178.03
2023-04-18T10:11:24.249Z,98179.88
2023-04-18T10:13:56.005Z,98179.19
2023-04-18T10:16:23.230Z,98176.31
2023-04-18T10:18:51.169Z,98170.81
2023-04-18T10:21:18.128Z,98170.13
2023-04-18T10:23:48.741Z,98176.63
2023-04-18T10:26:15.691Z,98171.84
2023-04-18T10:28:57.733Z,98152.44
2023-04-18T10:31:29.244Z,98165.56
2023-04-18T10:36:30.338Z,98160.94
2023-04-18T10:39:21.453Z,98160.53
2023-04-18T10:41:50.598Z,98158.59
2023-04-18T10:44:19.604Z,98157.88
2023-04-18T10:46:52.465Z,98146.56
2023-04-18T10:49:26.879Z,98142.09
2023-04-18T10:51:55.824Z,98146.34
2023-04-18T10:54:35.912Z,98114.03
2023-04-18T10:57:04.624Z,98140.16
2023-04-18T10:59:34.186Z,98134.63
2023-04-18T11:02:19.655Z,98131.81
2023-04-18T11:04:54.518Z,98130.97
2023-04-18T11:07:48.878Z,98129.72
2023-04-18T11:10:24.541Z,98109.25
2023-04-18T11:12:52.598Z,98123.16
2023-04-18T11:15:22.246Z,98107.47
2023-04-18T11:17:59.996Z,98122.22
2023-04-18T11:20:27.387Z,98122.88
2023-04-18T11:23:00.111Z,98124.25
2023-04-18T11:25:32.298Z,98117.84
2023-04-18T11:28:01.010Z,98119.09
2023-04-18T11:30:29.784Z,98121.97
2023-04-18T11:32:56.708Z,98115.44
2023-04-18T11:35:23.515Z,98119.66
2023-04-18T11:37:51.205Z,98116.38
2023-04-18T11:40:18.287Z,98093.81
2023-04-18T11:42:45.369Z,98116.34
2023-04-18T11:45:13.831Z,98107.88
2023-04-18T11:47:42.741Z,98117.97
2023-04-18T11:50:11.613Z,98116.06
2023-04-18T11:52:40.925Z,98110.47
2023-04-18T11:55:18.386Z,98095.88
2023-04-18T11:57:56.035Z,98096.56
2023-04-18T12:00:38.615Z,98108.81
2023-04-18T12:03:13.404Z,98113.56
2023-04-18T12:05:41.013Z,98114.19
2023-04-18T12:08:11.934Z,98116.69
2023-04-18T12:10:52.452Z,98113.81
2023-04-18T12:13:26.099Z,98116.00
2023-04-18T12:15:54.140Z,98116.13
2023-04-18T12:18:21.474Z,98107.53
2023-04-18T12:20:54.215Z,98111.66
2023-04-18T12:23:37.075Z,98110.81
2023-04-18T12:26:11.478Z,98109.31
2023-04-18T12:28:39.430Z,98117.66
2023-04-18T12:31:09.122Z,98110.38
2023-04-18T12:33:38.820Z,98112.03
2023-04-18T12:36:06.157Z,98118.59
2023-04-18T12:38:32.798Z,98117.41
2023-04-18T12:40:59.657Z,98117.78
2023-04-18T12:43:26.620Z,98113.03
2023-04-18T12:45:53.659Z,98118.03
2023-04-18T12:48:21.068Z,98099.88
2023-04-18T12:50:48.034Z,98116.94
2023-04-18T12:53:15.468Z,98120.94
2023-04-18T12:55:42.329Z,98120.34
2023-04-18T12:58:09.049Z,98112.13
2023-04-18T13:00:35.914Z,98112.00
2023-04-18T13:03:03.042Z,98112.25
2023-04-18T13:05:33.101Z,98124.44
2023-04-18T13:10:31.514Z,98114.69
2023-04-18T13:12:58.330Z,98119.22
2023-04-18T13:15:26.038Z,98113.44
2023-04-18T13:17:53.219Z,98097.56
2023-04-18T13:20:20.041Z,98118.59
2023-04-18T13:22:46.741Z,98116.56
2023-04-18T13:25:13.869Z,98109.72
2023-04-18T13:27:42.010Z,98111.88
2023-04-18T13:30:11.221Z,98115.25
2023-04-18T13:32:39.323Z,98081.81
2023-04-18T13:35:10.709Z,98112.97
2023-04-18T13:37:38.289Z,98115.41
2023-04-18T13:40:06.994Z,98110.34
2023-04-18T13:42:35.592Z,98106.19
2023-04-18T13:45:02.832Z,98107.06
2023-04-18T13:47:30.077Z,98114.47
2023-04-18T13:49:58.081Z,98105.38
2023-04-18T13:52:25.688Z,98105.63
2023-04-18T13:54:52.453Z,98112.47
2023-04-18T13:57:19.156Z,98111.06
2023-04-18T13:59:45.814Z,98107.97
2023-04-18T14:02:13.355Z,98112.28
2023-04-18T14:04:40.132Z,98108.47
2023-04-18T14:07:07.997Z,98114.28
2023-04-18T14:09:34.895Z,98110.25
2023-04-18T14:12:02.150Z,98108.34
2023-04-18T14:14:29.209Z,98113.41
2023-04-18T14:16:56.108Z,98112.75
2023-04-18T14:19:22.947Z,98110.41
2023-04-18T14:21:49.829Z,98113.16
2023-04-18T14:24:16.645Z,98109.31
2023-04-18T14:26:43.965Z,98116.16
2023-04-18T14:29:11.101Z,98120.00
2023-04-18T14:31:38.163Z,98117.72
2023-04-18T14:34:05.634Z,98117.72
2023-04-18T14:36:32.718Z,98123.06
2023-04-18T14:38:59.484Z,98124.97
2023-04-18T14:41:26.243Z,98126.53
2023-04-18T14:43:53.128Z,98118.88
2023-04-18T14:46:21.084Z,98124.63
2023-04-18T14:48:47.897Z,98134.03
2023-04-18T14:51:16.528Z,98112.78
2023-04-18T14:53:44.194Z,98122.28
2023-04-18T14:56:11.141Z,98149.94
2023-04-18T14:58:37.829Z,98156.41
2023-04-18T15:01:05.002Z,98159.72
2023-04-18T15:03:32.061Z,98164.13
2023-04-18T15:05:59.043Z,98167.56
2023-04-18T15:08:26.037Z,98167.84
2023-04-18T15:10:52.736Z,98173.31
2023-04-18T15:13:19.423Z,98174.56
2023-04-18T15:15:53.585Z,98175.25
2023-04-18T15:18:20.638Z,98177.44
2023-04-18T15:20:47.519Z,98188.41
2023-04-18T15:23:14.947Z,98195.50
2023-04-18T15:25:42.749Z,98173.38
2023-04-18T15:28:09.520Z,98197.16
2023-04-18T15:30:36.446Z,98200.72
2023-04-18T15:33:03.312Z,98190.56
2023-04-18T15:35:30.219Z,98198.34
2023-04-18T15:37:57.518Z,98206.72
2023-04-18T15:40:24.492Z,98209.44
2023-04-18T15:42:53.461Z,98212.19
2023-04-18T15:45:20.995Z,98210.81
2023-04-18T15:47:48.071Z,98200.69
2023-04-18T15:50:16.155Z,98208.50
2023-04-18T15:52:44.104Z,98224.19
2023-04-18T15:55:13.056Z,98232.09
2023-04-18T15:57:41.550Z,98235.63
2023-04-18T16:00:19.770Z,98231.34
2023-04-18T16:02:47.163Z,98219.00
2023-04-18T16:05:14.246Z,98234.16
2023-04-18T16:07:42.102Z,98231.72
2023-04-18T16:10:10.479Z,98230.91
2023-04-18T16:12:38.119Z,98219.78
2023-04-18T16:15:09.350Z,98243.13
2023-04-18T16:17:37.145Z,98232.84
2023-04-18T16:20:06.057Z,98260.09
2023-04-18T16:22:32.959Z,98269.25
2023-04-18T16:24:59.744Z,98270.09
2023-04-18T16:27:26.571Z,98279.66
2023-04-18T16:29:53.800Z,98265.53
2023-04-18T16:32:20.512Z,98262.53
2023-04-18T16:34:47.207Z,98262.25
2023-04-18T16:37:14.046Z,98261.06
2023-04-18T16:39:40.789Z,98252.56
2023-04-18T16:42:07.592Z,98244.88
2023-04-18T16:44:34.286Z,98241.78
2023-04-18T16:47:01.338Z,98218.59
2023-04-18T16:49:28.091Z,98243.56
2023-04-18T16:51:54.793Z,98238.31
2023-04-18T16:54:21.600Z,98215.75
2023-04-18T16:56:48.678Z,98209.50
2023-04-18T16:59:15.759Z,98225.84
2023-04-18T17:01:42.584Z,98218.06
2023-04-18T17:04:09.413Z,98216.28
2023-04-18T17:06:36.439Z,98198.78
2023-04-18T17:09:06.425Z,98189.50
2023-04-18T17:11:38.869Z,98191.38
2023-04-18T17:14:06.509Z,98217.78
2023-04-18T17:16:33.341Z,98218.41
2023-04-18T17:19:00.700Z,98205.63
2023-04-18T17:21:27.558Z,98215.81
2023-04-18T17:23:54.794Z,98217.47
2023-04-18T17:26:24.296Z,98223.66
2023-04-18T17:28:51.360Z,98220.38
2023-04-18T17:31:18.009Z,98225.56
2023-04-18T17:33:45.570Z,98228.69
2023-04-18T17:36:12.308Z,98226.91
2023-04-18T17:38:40.551Z,98211.75
2023-04-18T17:41:07.897Z,98225.03
2023-04-18T17:43:34.569Z,98228.78
2023-04-18T17:46:03.810Z,98232.31
2023-04-18T17:48:30.846Z,98232.03
2023-04-18T17:50:57.551Z,98225.19
2023-04-18T17:53:24.458Z,98227.53
2023-04-18T17:55:52.361Z,98214.59
2023-04-18T17:58:19.946Z,98230.28
2023-04-18T18:00:46.665Z,98231.34
2023-04-18T18:03:17.582Z,98215.47
2023-04-18T18:05:48.952Z,98235.59
2023-04-18T18:08:15.975Z,98234.97
2023-04-18T18:10:42.984Z,98241.72
2023-04-18T18:13:10.052Z,98246.06
2023-04-18T18:15:36.685Z,98245.13
2023-04-18T18:18:03.524Z,98220.81
2023-04-18T18:20:30.823Z,98246.34
2023-04-18T18:22:59.675Z,98241.84
2023-04-18T18:25:27.060Z,98239.63
2023-04-18T18:27:54.742Z,98235.50
2023-04-18T18:30:21.536Z,98252.31
2023-04-18T18:32:48.429Z,98266.41
2023-04-18T18:35:15.208Z,98264.66
2023-04-18T18:37:42.071Z,98261.97
2023-04-18T18:40:09.437Z,98263.84
2023-04-18T18:42:36.692Z,98271.84
2023-04-18T18:45:04.059Z,98257.72
2023-04-18T18:47:30.968Z,98270.66
2023-04-18T18:49:57.779Z,98276.63
2023-04-18T18:52:24.880Z,98283.94
2023-04-18T18:54:51.770Z,98286.41
2023-04-18T18:57:18.430Z,98294.03
2023-04-18T18:59:45.054Z,98285.81
2023-04-18T19:02:11.998Z,98296.28
2023-04-18T19:04:39.374Z,98297.00
2023-04-18T19:07:06.329Z,98293.22
2023-04-18T19:09:33.506Z,98307.81
2023-04-18T19:12:01.165Z,98300.16
2023-04-18T19:14:28.122Z,98307.34
2023-04-18T19:16:56.607Z,98308.28
2023-04-18T19:19:23.691Z,98296.16
2023-04-18T19:21:50.378Z,98315.19
2023-04-18T19:24:17.925Z,98316.97
2023-04-18T19:26:44.645Z,98320.63
2023-04-18T19:29:14.320Z,98319.00
2023-04-18T19:31:43.573Z,98304.84
2023-04-18T19:34:10.895Z,98322.97
2023-04-18T19:36:37.691Z,98326.75
2023-04-18T19:39:04.381Z,98327.06
2023-04-18T19:41:31.328Z,98329.78
2023-04-18T19:43:58.351Z,98337.44
2023-04-18T19:46:25.147Z,98324.97
2023-04-18T19:48:51.851Z,98336.13
2023-04-18T19:51:18.588Z,98333.22
2023-04-18T19:53:45.751Z,98316.97
2023-04-18T19:56:14.290Z,98336.25
2023-04-18T19:58:46.728Z,98331.31
2023-04-18T20:01:18.855Z,98340.84
2023-04-18T20:03:47.057Z,98340.00
2023-04-18T20:06:14.215Z,98345.53
2023-04-18T20:08:45.897Z,98347.31
2023-04-18T20:11:16.765Z,98352.44
2023-04-18T20:13:43.404Z,98336.06
2023-04-18T20:16:12.164Z,98350.91
2023-04-18T20:18:41.475Z,98341.75
2023-04-18T20:21:09.382Z,98341.63
2023-04-18T20:23:36.963Z,98360.22
2023-04-18T20:26:04.496Z,98365.13
2023-04-18T20:28:31.970Z,98385.19
2023-04-18T20:30:59.244Z,98357.72
2023-04-18T20:33:26.194Z,98380.06
2023-04-18T20:35:54.710Z,98384.53
2023-04-18T20:38:25.962Z,98382.06
2023-04-18T20:40:54.265Z,98387.34
2023-04-18T20:43:22.716Z,98386.75
2023-04-18T20:45:53.839Z,98394.69
2023-04-18T20:48:21.166Z,98398.75
2023-04-18T20:50:51.441Z,98386.50
2023-04-18T20:53:20.759Z,98402.19
2023-04-18T20:55:48.260Z,98404.88
2023-04-18T20:58:14.944Z,98379.31
2023-04-18T21:00:41.781Z,98404.25
2023-04-18T21:03:08.747Z,98409.31
2023-04-18T21:05:35.696Z,98404.03
2023-04-18T21:08:02.436Z,98412.50
2023-04-18T21:10:29.056Z,98420.59
2023-04-18T21:12:57.330Z,98412.13
2023-04-18T21:15:24.263Z,98412.03
2023-04-18T21:17:51.346Z,98416.63
2023-04-18T21:20:18.557Z,98417.75
2023-04-18T21:22:45.308Z,98429.00
2023-04-18T21:25:12.082Z,98423.13
2023-04-18T21:27:38.863Z,98427.34
2023-04-18T21:30:06.689Z,98429.22
2023-04-18T21:32:33.597Z,98428.81
2023-04-18T21:35:01.503Z,98436.88
2023-04-18T21:37:28.628Z,98417.91
2023-04-18T21:39:55.577Z,98433.88
2023-04-18T21:42:22.338Z,98450.09
2023-04-18T21:44:49.050Z,98434.44
2023-04-18T21:47:15.959Z,98454.53
2023-04-18T21:49:42.937Z,98438.47
2023-04-18T21:52:09.766Z,98454.66
2023-04-18T21:54:36.426Z,98456.59
2023-04-18T21:57:03.352Z,98461.66
2023-04-18T21:59:30.617Z,98458.47
2023-04-18T22:01:57.369Z,98453.53
2023-04-18T22:04:26.206Z,98461.25
2023-04-18T22:06:54.271Z,98452.88
2023-04-18T22:09:21.432Z,98450.81
2023-04-18T22:11:48.428Z,98460.28
2023-04-18T22:14:15.256Z,98444.81
2023-04-18T22:16:42.319Z,98459.91
2023-04-18T22:19:09.107Z,98462.66
2023-04-18T22:21:36.048Z,98459.56
2023-04-18T22:24:03.048Z,98443.34
2023-04-18T22:26:29.755Z,98467.78
2023-04-18T22:28:56.403Z,98466.66
2023-04-18T22:31:23.188Z,98469.84
2023-04-18T22:33:50.045Z,98465.63
2023-04-18T22:36:16.810Z,98462.72
2023-04-18T22:38:43.523Z,98478.53
2023-04-18T22:41:10.357Z,98475.41
2023-04-18T22:43:37.021Z,98468.28
2023-04-18T22:46:03.753Z,98481.78
2023-04-18T22:48:31.141Z,98473.72
2023-04-18T22:50:57.885Z,98484.03
2023-04-18T22:53:24.553Z,98479.50
2023-04-18T22:55:51.254Z,98491.69
2023-04-18T22:58:17.939Z,98470.91
2023-04-18T23:00:44.815Z,98483.41
2023-04-18T23:03:11.596Z,98482.38
2023-04-18T23:05:38.561Z,98496.19
2023-04-18T23:08:06.970Z,98478.00
2023-04-18T23:10:34.157Z,98489.97
2023-04-18T23:13:00.957Z,98495.00
2023-04-18T23:15:27.659Z,98491.53
2023-04-18T23:17:54.500Z,98496.94
2023-04-18T23:20:21.776Z,98491.78
2023-04-18T23:22:51.344Z,98492.63
2023-04-18T23:25:19.355Z,98497.03
2023-04-18T23:27:46.271Z,98495.31
2023-04-18T23:30:13.129Z,98487.31
2023-04-18T23:32:39.756Z,98505.06
2023-04-18T23:35:06.960Z,98502.56
2023-04-18T23:37:33.615Z,98494.56
2023-04-18T23:40:00.577Z,98494.66
2023-04-18T23:42:27.465Z,98502.28
2023-04-18T23:44:54.650Z,98495.56
2023-04-18T23:47:21.833Z,98497.44
2023-04-18T23:49:48.636Z,98494.75
2023-04-18T23:52:15.430Z,98501.84
2023-04-18T23:54:42.236Z,98498.09
2023-04-18T23:57:08.942Z,98493.38
2023-04-18T23:59:35.654Z,98489.81
